createdAt,value
2023-03-16T00:00:19.033Z,34.00
2023-03-16T00:04:19.244Z,34.80
2023-03-16T00:07:55.748Z,35.90
2023-03-16T00:11:36.932Z,35.70
2023-03-16T00:15:14.682Z,34.20
2023-03-16T00:19:03.373Z,36.60
2023-03-16T00:22:52.088Z,40.40
2023-03-16T00:26:40.795Z,36.40
2023-03-16T00:30:29.697Z,31.00
2023-03-16T00:34:18.421Z,32.60
2023-03-16T00:38:07.143Z,29.10
2023-03-16T00:41:18.479Z,32.00
2023-03-16T00:45:07.216Z,37.60
2023-03-16T00:48:56.112Z,33.20
2023-03-16T00:52:15.125Z,33.40
2023-03-16T00:56:00.399Z,32.70
2023-03-16T00:59:30.378Z,32.60
2023-03-16T01:03:03.347Z,30.10
2023-03-16T01:06:52.103Z,28.00
2023-03-16T01:10:40.749Z,34.30
2023-03-16T01:14:29.478Z,32.50
2023-03-16T01:18:18.127Z,31.60
2023-03-16T01:22:06.802Z,33.00
2023-03-16T01:25:54.430Z,25.30
2023-03-16T01:29:35.562Z,34.00
2023-03-16T01:33:16.799Z,29.50
2023-03-16T01:37:05.569Z,29.70
2023-03-16T01:40:56.990Z,31.60
2023-03-16T01:44:45.725Z,25.50
2023-03-16T01:48:25.045Z,26.10
2023-03-16T01:52:34.753Z,31.40
2023-03-16T01:56:23.537Z,29.20
2023-03-16T02:00:12.564Z,30.10
2023-03-16T02:04:04.185Z,28.30
2023-03-16T02:07:53.093Z,26.40
2023-03-16T02:11:42.573Z,24.60
2023-03-16T02:15:31.360Z,26.80
2023-03-16T02:19:20.197Z,31.10
2023-03-16T02:23:08.969Z,27.60
2023-03-16T02:26:59.078Z,37.10
2023-03-16T02:30:53.629Z,25.10
2023-03-16T02:34:34.815Z,30.10
2023-03-16T02:38:23.541Z,23.50
2023-03-16T02:42:13.979Z,30.30
2023-03-16T02:45:55.281Z,27.70
2023-03-16T02:49:44.014Z,31.10
2023-03-16T02:53:32.741Z,27.40
2023-03-16T02:57:21.456Z,28.20
2023-03-16T03:01:10.347Z,28.30
2023-03-16T03:04:50.800Z,30.30
2023-03-16T03:08:39.541Z,23.60
2023-03-16T03:12:28.259Z,29.90
2023-03-16T03:15:58.019Z,30.10
2023-03-16T03:19:39.455Z,25.50
2023-03-16T03:23:28.147Z,24.80
2023-03-16T03:27:16.929Z,33.80
2023-03-16T03:31:05.758Z,30.80
2023-03-16T03:34:34.536Z,30.60
2023-03-16T03:38:23.340Z,22.50
2023-03-16T03:42:12.234Z,28.80
2023-03-16T03:45:43.475Z,30.70
2023-03-16T03:49:32.215Z,23.60
2023-03-16T03:53:20.987Z,23.10
2023-03-16T03:56:55.236Z,30.90
2023-03-16T04:00:36.760Z,28.50
2023-03-16T04:04:25.552Z,31.70
2023-03-16T04:08:14.341Z,31.60
2023-03-16T04:11:57.023Z,30.50
2023-03-16T04:15:44.417Z,27.90
2023-03-16T04:19:33.212Z,26.70
2023-03-16T04:23:12.920Z,32.40
2023-03-16T04:26:51.752Z,23.80
2023-03-16T04:30:40.563Z,32.00
2023-03-16T04:34:32.248Z,28.40
2023-03-16T04:38:20.999Z,28.40
2023-03-16T04:42:15.551Z,37.30
2023-03-16T04:46:04.453Z,27.80
2023-03-16T04:49:53.220Z,28.70
2023-03-16T04:53:41.970Z,34.30
2023-03-16T04:57:30.692Z,32.60
2023-03-16T05:01:19.539Z,31.30
2023-03-16T05:04:58.193Z,32.30
2023-03-16T05:08:46.971Z,32.20
2023-03-16T05:12:35.678Z,35.80
2023-03-16T05:16:15.756Z,31.60
2023-03-16T05:20:04.540Z,33.20
2023-03-16T05:23:53.317Z,33.70
2023-03-16T05:27:42.108Z,29.70
2023-03-16T05:31:14.034Z,29.80
2023-03-16T05:34:59.169Z,30.60
2023-03-16T05:38:47.979Z,32.20
2023-03-16T05:42:36.731Z,31.40
2023-03-16T05:46:24.383Z,27.80
2023-03-16T05:50:13.142Z,26.90
2023-03-16T05:54:01.929Z,30.50
2023-03-16T05:57:51.022Z,38.50
2023-03-16T06:01:32.220Z,33.70
2023-03-16T06:05:20.965Z,38.10
2023-03-16T06:08:59.558Z,34.80
2023-03-16T06:12:38.290Z,40.20
2023-03-16T06:16:16.991Z,29.60
2023-03-16T06:19:45.742Z,34.70
2023-03-16T06:23:33.590Z,38.70
2023-03-16T06:27:12.255Z,31.60
2023-03-16T06:30:23.458Z,34.80
2023-03-16T06:34:11.215Z,41.50
2023-03-16T06:37:51.673Z,36.10
2023-03-16T06:41:43.135Z,42.00
2023-03-16T06:45:12.601Z,43.20
2023-03-16T06:48:51.343Z,41.80
2023-03-16T06:52:19.479Z,36.20
2023-03-16T06:56:01.970Z,35.80
2023-03-16T06:59:40.718Z,36.80
2023-03-16T07:03:19.371Z,34.90
2023-03-16T07:07:08.709Z,41.70
2023-03-16T07:10:07.631Z,35.70
2023-03-16T07:13:21.628Z,36.10
2023-03-16T07:16:44.577Z,33.20
2023-03-16T07:23:53.721Z,27.30
2023-03-16T07:27:45.208Z,29.10
2023-03-16T07:31:29.567Z,25.30
2023-03-16T07:35:02.881Z,28.20
2023-03-16T07:39:03.342Z,24.60
2023-03-16T07:42:52.428Z,26.60
2023-03-16T07:46:50.324Z,29.10
2023-03-16T07:50:31.306Z,25.00
2023-03-16T07:54:07.316Z,31.20
2023-03-16T07:57:47.732Z,21.00
2023-03-16T08:01:29.624Z,20.10
2023-03-16T08:05:13.740Z,22.00
2023-03-16T08:08:56.533Z,17.50
2023-03-16T08:12:44.677Z,24.30
2023-03-16T08:16:09.950Z,24.00
2023-03-16T08:20:01.624Z,23.80
2023-03-16T08:23:51.121Z,17.50
2023-03-16T08:27:45.496Z,17.40
2023-03-16T08:31:35.187Z,16.10
2023-03-16T08:35:17.618Z,20.00
2023-03-16T08:39:08.962Z,14.00
2023-03-16T08:42:52.790Z,17.80
2023-03-16T08:46:43.128Z,19.50
2023-03-16T08:50:34.866Z,15.20
2023-03-16T08:54:34.188Z,17.50
2023-03-16T08:58:32.428Z,15.40
2023-03-16T09:02:23.124Z,21.30
2023-03-16T09:06:12.394Z,15.10
2023-03-16T09:10:02.704Z,16.80
2023-03-16T09:13:53.029Z,17.50
2023-03-16T09:17:41.576Z,20.60
2023-03-16T09:21:33.789Z,25.60
2023-03-16T09:25:19.956Z,25.90
2023-03-16T09:29:09.435Z,23.90
2023-03-16T09:32:58.954Z,20.90
2023-03-16T09:36:48.809Z,25.70
2023-03-16T09:40:39.044Z,18.50
2023-03-16T09:44:43.424Z,18.70
2023-03-16T09:48:04.798Z,13.90
2023-03-16T09:51:39.326Z,15.90
2023-03-16T09:56:00.930Z,16.60
2023-03-16T09:59:49.600Z,15.00
2023-03-16T10:03:21.486Z,22.90
2023-03-16T10:06:52.674Z,14.90
2023-03-16T10:10:26.643Z,15.10
2023-03-16T10:14:37.271Z,18.50
2023-03-16T10:18:21.103Z,12.30
2023-03-16T10:22:03.905Z,14.50
2023-03-16T10:25:32.873Z,13.00
2023-03-16T10:28:53.814Z,13.40
2023-03-16T10:32:31.396Z,12.00
2023-03-16T10:36:31.054Z,9.30
2023-03-16T10:40:12.146Z,15.10
2023-03-16T10:43:55.704Z,9.10
2023-03-16T10:47:31.761Z,11.70
2023-03-16T10:51:24.036Z,10.60
2023-03-16T10:54:51.550Z,13.00
2023-03-16T10:58:30.629Z,7.70
2023-03-16T11:01:49.387Z,10.20
2023-03-16T11:05:26.111Z,9.40
2023-03-16T11:09:09.297Z,6.80
2023-03-16T11:13:02.393Z,7.10
2023-03-16T11:17:00.343Z,12.10
2023-03-16T11:20:05.808Z,8.00
2023-03-16T11:23:39.517Z,6.60
2023-03-16T11:27:35.357Z,11.90
2023-03-16T11:31:14.066Z,9.00
2023-03-16T11:34:47.674Z,5.50
2023-03-16T11:38:49.348Z,7.70
2023-03-16T11:42:17.421Z,5.90
2023-03-16T11:46:14.682Z,11.60
2023-03-16T11:49:46.349Z,14.00
2023-03-16T11:54:10.730Z,8.90
2023-03-16T11:58:02.783Z,12.20
2023-03-16T12:01:43.051Z,13.80
2023-03-16T12:05:28.376Z,9.30
2023-03-16T12:09:26.430Z,11.20
2023-03-16T12:13:16.839Z,7.70
2023-03-16T12:17:13.948Z,8.60
2023-03-16T12:20:55.577Z,11.00
2023-03-16T12:24:34.440Z,10.60
2023-03-16T12:28:37.103Z,10.50
2023-03-16T12:32:53.362Z,12.10
2023-03-16T12:36:50.018Z,8.70
2023-03-16T12:40:48.041Z,11.80
2023-03-16T12:44:40.405Z,13.50
2023-03-16T12:48:16.753Z,10.50
2023-03-16T12:51:49.253Z,11.10
2023-03-16T12:56:00.877Z,11.20
2023-03-16T12:59:42.466Z,10.70
2023-03-16T13:03:31.586Z,7.40
2023-03-16T13:07:11.937Z,6.30
2023-03-16T13:11:07.111Z,6.70
2023-03-16T13:14:49.766Z,8.80
2023-03-16T13:18:27.815Z,7.10
2023-03-16T13:22:14.642Z,7.40
2023-03-16T13:26:11.158Z,11.10
2023-03-16T13:33:12.960Z,7.40
2023-03-16T13:36:56.398Z,4.70
2023-03-16T13:40:57.999Z,9.50
2023-03-16T13:45:19.253Z,7.50
2023-03-16T13:48:34.332Z,12.60
2023-03-16T13:52:26.471Z,13.50
2023-03-16T13:55:56.512Z,10.60
2023-03-16T13:59:28.937Z,11.50
2023-03-16T14:03:17.704Z,11.40
2023-03-16T14:06:34.691Z,7.10
2023-03-16T14:10:13.471Z,15.60
2023-03-16T14:14:00.859Z,7.40
2023-03-16T14:17:49.643Z,14.00
2023-03-16T14:21:26.649Z,11.20
2023-03-16T14:24:59.006Z,12.10
2023-03-16T14:28:47.993Z,12.60
2023-03-16T14:32:17.479Z,7.80
2023-03-16T14:36:03.456Z,8.60
2023-03-16T14:39:49.189Z,8.70
2023-03-16T14:43:40.678Z,6.20
2023-03-16T14:47:19.302Z,14.20
2023-03-16T14:51:00.547Z,9.30
2023-03-16T14:54:58.284Z,12.10
2023-03-16T14:58:10.458Z,11.70
2023-03-16T15:01:39.128Z,8.60
2023-03-16T15:05:17.908Z,10.40
2023-03-16T15:08:42.074Z,9.50
2023-03-16T15:12:30.806Z,10.80
2023-03-16T15:16:04.737Z,6.30
2023-03-16T15:19:43.517Z,15.20
2023-03-16T15:22:51.736Z,4.70
2023-03-16T15:26:26.371Z,9.20
2023-03-16T15:30:15.130Z,7.30
2023-03-16T15:33:53.784Z,5.80
2023-03-16T15:37:33.102Z,5.90
2023-03-16T15:41:18.819Z,5.70
2023-03-16T15:44:58.409Z,4.90
2023-03-16T15:48:10.984Z,7.30
2023-03-16T15:51:44.817Z,9.10
2023-03-16T15:55:36.632Z,10.50
2023-03-16T15:59:25.383Z,8.70
2023-03-16T16:03:26.192Z,13.30
2023-03-16T16:06:50.165Z,8.00
2023-03-16T16:10:08.773Z,8.90
2023-03-16T16:13:44.745Z,14.10
2023-03-16T16:17:47.887Z,12.00
2023-03-16T16:21:07.283Z,11.20
2023-03-16T16:24:56.271Z,10.60
2023-03-16T16:28:56.844Z,8.50
2023-03-16T16:32:45.804Z,8.10
2023-03-16T16:36:07.397Z,8.60
2023-03-16T16:39:27.458Z,9.40
2023-03-16T16:43:16.248Z,7.70
2023-03-16T16:46:54.877Z,9.60
2023-03-16T16:50:43.712Z,9.80
2023-03-16T16:54:16.071Z,9.70
2023-03-16T16:58:09.822Z,8.50
2023-03-16T17:02:01.214Z,10.50
2023-03-16T17:05:58.404Z,9.70
2023-03-16T17:09:47.185Z,8.60
2023-03-16T17:13:35.984Z,11.20
2023-03-16T17:17:19.427Z,7.50
2023-03-16T17:20:55.177Z,9.60
2023-03-16T17:24:36.801Z,6.90
2023-03-16T17:28:18.868Z,6.40
2023-03-16T17:31:41.254Z,9.60
2023-03-16T17:35:19.922Z,11.00
2023-03-16T17:39:17.932Z,9.60
2023-03-16T17:43:18.419Z,10.80
2023-03-16T17:46:56.559Z,9.60
2023-03-16T17:50:20.894Z,8.40
2023-03-16T17:54:01.039Z,8.90
2023-03-16T17:57:49.880Z,10.00
2023-03-16T18:01:31.462Z,8.60
2023-03-16T18:05:05.985Z,6.60
2023-03-16T18:08:55.092Z,7.90
2023-03-16T18:12:44.079Z,7.90
2023-03-16T18:17:10.116Z,8.80
2023-03-16T18:20:32.819Z,7.90
2023-03-16T18:24:17.277Z,11.70
2023-03-16T18:27:56.983Z,15.90
2023-03-16T18:31:45.774Z,9.60
2023-03-16T18:35:27.424Z,16.40
2023-03-16T18:39:09.175Z,10.70
2023-03-16T18:42:23.960Z,14.50
2023-03-16T18:45:55.891Z,14.10
2023-03-16T18:49:36.358Z,19.20
2023-03-16T18:53:27.978Z,16.70
2023-03-16T18:57:19.796Z,17.10
2023-03-16T19:00:55.064Z,14.00
2023-03-16T19:04:46.231Z,17.20
2023-03-16T19:08:34.875Z,12.40
2023-03-16T19:12:22.500Z,21.90
2023-03-16T19:16:04.114Z,21.00
2023-03-16T19:19:53.241Z,18.70
2023-03-16T19:23:47.496Z,16.30
2023-03-16T19:27:36.267Z,19.60
2023-03-16T19:31:05.084Z,13.70
2023-03-16T19:34:46.487Z,20.40
2023-03-16T19:38:00.661Z,17.70
2023-03-16T19:41:40.204Z,16.40
2023-03-16T19:45:29.238Z,18.10
2023-03-16T19:48:53.610Z,18.50
2023-03-16T19:52:35.056Z,20.40
2023-03-16T19:56:06.635Z,15.70
2023-03-16T19:59:39.414Z,15.50
2023-03-16T20:03:16.639Z,20.90
2023-03-16T20:06:59.665Z,19.80
2023-03-16T20:10:45.709Z,22.00
2023-03-16T20:14:33.714Z,21.20
2023-03-16T20:18:07.860Z,30.10
2023-03-16T20:21:56.671Z,22.60
2023-03-16T20:25:28.842Z,22.90
2023-03-16T20:28:59.089Z,21.50
2023-03-16T20:32:38.854Z,19.00
2023-03-16T20:36:27.717Z,23.30
2023-03-16T20:39:55.059Z,21.40
2023-03-16T20:43:26.632Z,21.70
2023-03-16T20:46:39.057Z,22.60
2023-03-16T20:49:53.200Z,21.40
2023-03-16T20:53:31.782Z,25.50
2023-03-16T20:57:13.802Z,28.80
2023-03-16T21:01:16.330Z,28.40
2023-03-16T21:05:05.178Z,24.40
2023-03-16T21:08:53.970Z,25.60
2023-03-16T21:12:34.956Z,25.00
2023-03-16T21:15:54.795Z,28.20
2023-03-16T21:19:36.068Z,24.50
2023-03-16T21:23:24.762Z,27.90
2023-03-16T21:26:53.704Z,29.70
2023-03-16T21:30:45.298Z,24.20
2023-03-16T21:34:36.812Z,22.70
2023-03-16T21:38:18.063Z,24.50
2023-03-16T21:42:05.255Z,27.10
2023-03-16T21:45:53.977Z,22.70
2023-03-16T21:49:42.703Z,25.80
2023-03-16T21:53:31.579Z,30.10
2023-03-16T21:57:20.349Z,25.50
2023-03-16T22:01:01.744Z,25.00
2023-03-16T22:04:46.070Z,27.90
2023-03-16T22:08:34.966Z,29.30
2023-03-16T22:12:26.502Z,29.20
2023-03-16T22:16:15.244Z,29.60
2023-03-16T22:20:03.977Z,38.50
2023-03-16T22:23:52.649Z,38.80
2023-03-16T22:27:41.364Z,37.60
2023-03-16T22:31:30.046Z,35.80
2023-03-16T22:35:36.680Z,39.60
2023-03-16T22:39:18.741Z,35.70
2023-03-16T22:42:57.368Z,39.50
2023-03-16T22:46:33.562Z,38.50
2023-03-16T22:50:13.442Z,36.00
2023-03-16T22:54:04.815Z,30.50
2023-03-16T22:57:53.502Z,39.00
2023-03-16T23:01:20.680Z,33.70
2023-03-16T23:05:07.977Z,37.40
2023-03-16T23:08:56.654Z,38.50
2023-03-16T23:12:45.417Z,34.60
2023-03-16T23:16:27.023Z,35.80
2023-03-16T23:20:18.566Z,37.70
2023-03-16T23:24:07.225Z,33.80
2023-03-16T23:27:58.881Z,33.90
2023-03-16T23:31:45.422Z,34.70
2023-03-16T23:35:24.098Z,36.10
2023-03-16T23:39:05.455Z,38.80
2023-03-16T23:42:54.275Z,42.00
2023-03-16T23:46:33.413Z,38.30
2023-03-16T23:50:22.127Z,41.20
2023-03-16T23:54:13.682Z,38.70
2023-03-16T23:58:02.433Z,32.50
